sensor_id;sensor_type;location;lat;lon;timestamp;pressure;altitude;pressure_sealevel;temperature;humidity
5284;BME280;15377;48.540;9.268;2022-11-04T00:01:44;96483.63;;;10.14;100.00
5284;BME280;15377;48.540;9.268;2022-11-04T00:04:11;96474.59;;;10.08;100.00
5284;BME280;15377;48.540;9.268;2022-11-04T00:06:38;96473.84;;;10.08;100.00
5284;BME280;15377;48.540;9.268;2022-11-04T00:09:06;96473.09;;;10.07;100.00
5284;BME280;15377;48.540;9.268;2022-11-04T00:11:32;96470.09;;;10.05;100.00
5284;BME280;15377;48.540;9.268;2022-11-04T00:14:16;96466.50;;;9.99;100.00
5284;BME280;15377;48.540;9.268;2022-11-04T00:16:41;96469.50;;;10.01;100.00
5284;BME280;15377;48.540;9.268;2022-11-04T00:19:26;96454.00;;;9.98;100.00
5284;BME280;15377;48.540;9.268;2022-11-04T00:21:51;96453.47;;;9.94;100.00
5284;BME280;15377;48.540;9.268;2022-11-04T00:24:35;96459.97;;;9.91;100.00
5284;BME280;15377;48.540;9.268;2022-11-04T00:27:15;96463.72;;;9.94;100.00
5284;BME280;15377;48.540;9.268;2022-11-04T00:29:59;96463.19;;;9.90;100.00
5284;BME280;15377;48.540;9.268;2022-11-04T00:32:25;96445.63;;;9.76;100.00
5284;BME280;15377;48.540;9.268;2022-11-04T00:35:11;96470.91;;;9.86;100.00
5284;BME280;15377;48.540;9.268;2022-11-04T00:37:38;96477.66;;;9.85;100.00
5284;BME280;15377;48.540;9.268;2022-11-04T00:40:05;96481.88;;;9.80;100.00
5284;BME280;15377;48.540;9.268;2022-11-04T00:42:31;96473.09;;;9.76;100.00
5284;BME280;15377;48.540;9.268;2022-11-04T00:44:57;96479.59;;;9.79;100.00
5284;BME280;15377;48.540;9.268;2022-11-04T00:47:22;96492.41;;;9.87;100.00
5284;BME280;15377;48.540;9.268;2022-11-04T00:49:47;96496.38;;;9.86;100.00
5284;BME280;15377;48.540;9.268;2022-11-04T00:52:13;96487.88;;;9.84;100.00
5284;BME280;15377;48.540;9.268;2022-11-04T00:54:38;96491.19;;;9.88;100.00
5284;BME280;15377;48.540;9.268;2022-11-04T00:57:04;96491.94;;;9.94;100.00
5284;BME280;15377;48.540;9.268;2022-11-04T00:59:29;96487.44;;;9.91;100.00
5284;BME280;15377;48.540;9.268;2022-11-04T01:01:55;96486.69;;;9.91;100.00
5284;BME280;15377;48.540;9.268;2022-11-04T01:04:21;96489.97;;;9.95;100.00
5284;BME280;15377;48.540;9.268;2022-11-04T01:06:46;96487.22;;;9.95;100.00
5284;BME280;15377;48.540;9.268;2022-11-04T01:09:12;96498.00;;;9.98;100.00
5284;BME280;15377;48.540;9.268;2022-11-04T01:11:38;96498.69;;;9.93;100.00
5284;BME280;15377;48.540;9.268;2022-11-04T01:14:04;96499.94;;;9.92;100.00
5284;BME280;15377;48.540;9.268;2022-11-04T01:16:29;96521.47;;;9.99;100.00
5284;BME280;15377;48.540;9.268;2022-11-04T01:18:55;96522.72;;;9.98;100.00
5284;BME280;15377;48.540;9.268;2022-11-04T01:21:21;96524.47;;;10.01;100.00
5284;BME280;15377;48.540;9.268;2022-11-04T01:23:46;96504.47;;;9.95;100.00
5284;BME280;15377;48.540;9.268;2022-11-04T01:26:17;96514.47;;;9.98;100.00
5284;BME280;15377;48.540;9.268;2022-11-04T01:28:44;96528.28;;;10.04;100.00
5284;BME280;15377;48.540;9.268;2022-11-04T01:31:12;96526.56;;;10.06;100.00
5284;BME280;15377;48.540;9.268;2022-11-04T01:33:38;96539.06;;;10.07;100.00
5284;BME280;15377;48.540;9.268;2022-11-04T01:36:05;96530.56;;;10.05;100.00
5284;BME280;15377;48.540;9.268;2022-11-04T01:38:30;96524.47;;;10.01;100.00
5284;BME280;15377;48.540;9.268;2022-11-04T01:40:56;96523.75;;;10.01;100.00
5284;BME280;15377;48.540;9.268;2022-11-04T01:43:22;96529.22;;;9.95;100.00
5284;BME280;15377;48.540;9.268;2022-11-04T01:45:52;96523.41;;;9.93;100.00
5284;BME280;15377;48.540;9.268;2022-11-04T01:48:25;96531.66;;;9.93;100.00
5284;BME280;15377;48.540;9.268;2022-11-04T01:50:52;96528.44;;;9.95;100.00
5284;BME280;15377;48.540;9.268;2022-11-04T01:53:23;96516.66;;;9.89;100.00
5284;BME280;15377;48.540;9.268;2022-11-04T01:55:57;96522.91;;;9.89;100.00
5284;BME280;15377;48.540;9.268;2022-11-04T01:58:26;96512.34;;;9.82;100.00
5284;BME280;15377;48.540;9.268;2022-11-04T02:00:53;96516.34;;;9.81;100.00
5284;BME280;15377;48.540;9.268;2022-11-04T02:03:32;96504.81;;;9.77;100.00
5284;BME280;15377;48.540;9.268;2022-11-04T02:05:58;96505.56;;;9.78;100.00
5284;BME280;15377;48.540;9.268;2022-11-04T02:08:24;96517.38;;;9.84;100.00
5284;BME280;15377;48.540;9.268;2022-11-04T02:11:01;96525.06;;;9.80;100.00
5284;BME280;15377;48.540;9.268;2022-11-04T02:13:27;96520.34;;;9.80;100.00
5284;BME280;15377;48.540;9.268;2022-11-04T02:29:48;96520.16;;;9.58;100.00
5284;BME280;15377;48.540;9.268;2022-11-04T02:32:40;96519.06;;;9.50;100.00
5284;BME280;15377;48.540;9.268;2022-11-04T02:35:22;96519.78;;;9.45;100.00
5284;BME280;15377;48.540;9.268;2022-11-04T02:37:55;96515.72;;;9.41;100.00
5284;BME280;15377;48.540;9.268;2022-11-04T02:41:04;96513.16;;;9.32;100.00
5284;BME280;15377;48.540;9.268;2022-11-04T02:43:38;96504.44;;;9.33;100.00
5284;BME280;15377;48.540;9.268;2022-11-04T02:46:35;96512.38;;;9.31;100.00
5284;BME280;15377;48.540;9.268;2022-11-04T02:49:09;96499.09;;;9.24;100.00
5284;BME280;15377;48.540;9.268;2022-11-04T02:51:41;96514.81;;;9.24;100.00
5284;BME280;15377;48.540;9.268;2022-11-04T02:54:18;96502.81;;;9.21;100.00
5284;BME280;15377;48.540;9.268;2022-11-04T02:56:48;96506.25;;;9.16;100.00
5284;BME280;15377;48.540;9.268;2022-11-04T02:59:20;96494.19;;;9.08;100.00
5284;BME280;15377;48.540;9.268;2022-11-04T03:01:49;96494.19;;;9.08;100.00
5284;BME280;15377;48.540;9.268;2022-11-04T03:04:21;96502.91;;;9.07;100.00
5284;BME280;15377;48.540;9.268;2022-11-04T03:06:49;96502.31;;;8.97;100.00
5284;BME280;15377;48.540;9.268;2022-11-04T03:09:17;96515.06;;;9.00;100.00
5284;BME280;15377;48.540;9.268;2022-11-04T03:11:46;96499.97;;;8.90;100.00
5284;BME280;15377;48.540;9.268;2022-11-04T03:14:18;96519.25;;;8.96;100.00
5284;BME280;15377;48.540;9.268;2022-11-04T03:16:48;96517.94;;;8.91;100.00
5284;BME280;15377;48.540;9.268;2022-11-04T03:19:37;96516.44;;;8.90;100.00
5284;BME280;15377;48.540;9.268;2022-11-04T03:22:16;96524.00;;;8.95;100.00
5284;BME280;15377;48.540;9.268;2022-11-04T03:24:44;96518.16;;;8.88;100.00
5284;BME280;15377;48.540;9.268;2022-11-04T03:27:22;96532.38;;;8.86;100.00
5284;BME280;15377;48.540;9.268;2022-11-04T03:30:07;96516.59;;;8.81;100.00
5284;BME280;15377;48.540;9.268;2022-11-04T03:32:56;96523.59;;;8.82;100.00
5284;BME280;15377;48.540;9.268;2022-11-04T03:35:23;96532.28;;;8.81;100.00
5284;BME280;15377;48.540;9.268;2022-11-04T03:37:49;96524.75;;;8.76;100.00
5284;BME280;15377;48.540;9.268;2022-11-04T03:40:16;96529.00;;;8.77;100.00
5284;BME280;15377;48.540;9.268;2022-11-04T03:43:05;96531.97;;;8.73;100.00
5284;BME280;15377;48.540;9.268;2022-11-04T03:45:32;96541.69;;;8.74;100.00
5284;BME280;15377;48.540;9.268;2022-11-04T03:47:59;96543.53;;;8.63;100.00
5284;BME280;15377;48.540;9.268;2022-11-04T03:50:27;96559.78;;;8.66;100.00
5284;BME280;15377;48.540;9.268;2022-11-04T03:52:53;96552.53;;;8.63;100.00
5284;BME280;15377;48.540;9.268;2022-11-04T03:55:20;96530.72;;;8.54;100.00
5284;BME280;15377;48.540;9.268;2022-11-04T03:57:56;96545.94;;;8.55;100.00
5284;BME280;15377;48.540;9.268;2022-11-04T04:00:28;96546.63;;;8.50;100.00
5284;BME280;15377;48.540;9.268;2022-11-04T04:05:37;96549.09;;;8.48;100.00
5284;BME280;15377;48.540;9.268;2022-11-04T04:11:06;96536.66;;;8.33;100.00
5284;BME280;15377;48.540;9.268;2022-11-04T04:13:58;96537.13;;;8.31;100.00
5284;BME280;15377;48.540;9.268;2022-11-04T04:16:52;96539.31;;;8.27;100.00
5284;BME280;15377;48.540;9.268;2022-11-04T04:19:21;96545.06;;;8.29;100.00
5284;BME280;15377;48.540;9.268;2022-11-04T04:22:11;96555.47;;;8.25;100.00
5284;BME280;15377;48.540;9.268;2022-11-04T04:24:41;96570.41;;;8.24;100.00
5284;BME280;15377;48.540;9.268;2022-11-04T04:27:27;96570.88;;;8.23;100.00
5284;BME280;15377;48.540;9.268;2022-11-04T04:29:56;96570.41;;;8.24;100.00
5284;BME280;15377;48.540;9.268;2022-11-04T04:32:24;96569.28;;;8.16;100.00
5284;BME280;15377;48.540;9.268;2022-11-04T04:34:51;96574.19;;;8.12;100.00
5284;BME280;15377;48.540;9.268;2022-11-04T04:37:36;96568.16;;;8.08;100.00
5284;BME280;15377;48.540;9.268;2022-11-04T04:40:05;96569.00;;;8.14;100.00
5284;BME280;15377;48.540;9.268;2022-11-04T04:42:51;96556.22;;;8.11;100.00
5284;BME280;15377;48.540;9.268;2022-11-04T04:45:51;96552.66;;;8.05;100.00
5284;BME280;15377;48.540;9.268;2022-11-04T04:48:18;96538.13;;;7.99;100.00
5284;BME280;15377;48.540;9.268;2022-11-04T04:50:48;96535.41;;;7.99;100.00
5284;BME280;15377;48.540;9.268;2022-11-04T04:53:15;96518.66;;;7.97;100.00
5284;BME280;15377;48.540;9.268;2022-11-04T04:55:40;96505.53;;;8.01;100.00
5284;BME280;15377;48.540;9.268;2022-11-04T04:58:06;96505.25;;;7.99;100.00
5284;BME280;15377;48.540;9.268;2022-11-04T05:00:31;96497.72;;;7.94;100.00
5284;BME280;15377;48.540;9.268;2022-11-04T05:02:58;96500.16;;;7.92;100.00
5284;BME280;15377;48.540;9.268;2022-11-04T05:05:23;96482.44;;;7.88;100.00
5284;BME280;15377;48.540;9.268;2022-11-04T05:07:49;96497.91;;;7.91;100.00
5284;BME280;15377;48.540;9.268;2022-11-04T05:10:15;96490.34;;;7.86;100.00
5284;BME280;15377;48.540;9.268;2022-11-04T05:12:41;96496.31;;;7.84;100.00
5284;BME280;15377;48.540;9.268;2022-11-04T05:15:26;96495.66;;;7.75;100.00
5284;BME280;15377;48.540;9.268;2022-11-04T05:17:57;96509.06;;;7.87;100.00
5284;BME280;15377;48.540;9.268;2022-11-04T05:20:23;96513.56;;;7.90;100.00
5284;BME280;15377;48.540;9.268;2022-11-04T05:22:48;96510.56;;;7.88;100.00
5284;BME280;15377;48.540;9.268;2022-11-04T05:25:14;96510.47;;;7.83;100.00
5284;BME280;15377;48.540;9.268;2022-11-04T05:27:39;96506.81;;;7.71;100.00
5284;BME280;15377;48.540;9.268;2022-11-04T05:30:05;96500.94;;;7.78;100.00
5284;BME280;15377;48.540;9.268;2022-11-04T05:32:31;96520.13;;;7.78;100.00
5284;BME280;15377;48.540;9.268;2022-11-04T05:34:56;96515.50;;;7.70;100.00
5284;BME280;15377;48.540;9.268;2022-11-04T05:37:22;96515.31;;;7.59;100.00
5284;BME280;15377;48.540;9.268;2022-11-04T05:39:47;96518.91;;;7.50;100.00
5284;BME280;15377;48.540;9.268;2022-11-04T05:42:12;96509.47;;;7.37;100.00
5284;BME280;15377;48.540;9.268;2022-11-04T05:44:38;96507.41;;;7.32;100.00
5284;BME280;15377;48.540;9.268;2022-11-04T05:47:03;96503.63;;;7.29;100.00
5284;BME280;15377;48.540;9.268;2022-11-04T05:49:28;96491.81;;;7.23;100.00
5284;BME280;15377;48.540;9.268;2022-11-04T05:51:54;96484.16;;;7.27;100.00
5284;BME280;15377;48.540;9.268;2022-11-04T05:54:19;96491.53;;;7.36;100.00
5284;BME280;15377;48.540;9.268;2022-11-04T05:56:44;96472.84;;;7.34;100.00
5284;BME280;15377;48.540;9.268;2022-11-04T05:59:10;96485.88;;;7.39;100.00
5284;BME280;15377;48.540;9.268;2022-11-04T06:01:38;96490.97;;;7.46;100.00
5284;BME280;15377;48.540;9.268;2022-11-04T06:04:04;96508.72;;;7.51;100.00
5284;BME280;15377;48.540;9.268;2022-11-04T06:06:33;96515.50;;;7.55;100.00
5284;BME280;15377;48.540;9.268;2022-11-04T06:08:59;96509.75;;;7.53;100.00
5284;BME280;15377;48.540;9.268;2022-11-04T06:11:26;96509.84;;;7.44;100.00
5284;BME280;15377;48.540;9.268;2022-11-04T06:13:53;96504.56;;;7.26;100.00
5284;BME280;15377;48.540;9.268;2022-11-04T06:16:19;96532.88;;;7.23;100.00
5284;BME280;15377;48.540;9.268;2022-11-04T06:18:45;96540.41;;;7.14;100.00
5284;BME280;15377;48.540;9.268;2022-11-04T06:23:39;96530.13;;;7.09;100.00
5284;BME280;15377;48.540;9.268;2022-11-04T06:26:05;96530.19;;;7.00;100.00
5284;BME280;15377;48.540;9.268;2022-11-04T06:28:30;96529.03;;;6.92;100.00
5284;BME280;15377;48.540;9.268;2022-11-04T06:30:57;96542.66;;;7.01;100.00
5284;BME280;15377;48.540;9.268;2022-11-04T06:33:23;96541.72;;;7.04;100.00
5284;BME280;15377;48.540;9.268;2022-11-04T06:35:49;96550.69;;;7.05;100.00
5284;BME280;15377;48.540;9.268;2022-11-04T06:38:14;96545.50;;;7.07;100.00
5284;BME280;15377;48.540;9.268;2022-11-04T06:40:39;96557.00;;;7.10;100.00
5284;BME280;15377;48.540;9.268;2022-11-04T06:43:05;96556.06;;;7.13;100.00
5284;BME280;15377;48.540;9.268;2022-11-04T06:45:30;96560.59;;;7.16;100.00
5284;BME280;15377;48.540;9.268;2022-11-04T06:47:56;96553.63;;;7.15;100.00
5284;BME280;15377;48.540;9.268;2022-11-04T06:50:21;96556.63;;;7.17;100.00
5284;BME280;15377;48.540;9.268;2022-11-04T06:52:46;96550.78;;;7.24;100.00
5284;BME280;15377;48.540;9.268;2022-11-04T06:55:12;96550.59;;;7.28;100.00
5284;BME280;15377;48.540;9.268;2022-11-04T06:57:37;96552.88;;;7.29;100.00
5284;BME280;15377;48.540;9.268;2022-11-04T07:00:03;96535.31;;;7.21;100.00
5284;BME280;15377;48.540;9.268;2022-11-04T07:02:28;96528.91;;;7.24;100.00
5284;BME280;15377;48.540;9.268;2022-11-04T07:04:54;96533.91;;;7.26;100.00
5284;BME280;15377;48.540;9.268;2022-11-04T07:07:19;96505.88;;;7.16;100.00
5284;BME280;15377;48.540;9.268;2022-11-04T07:09:44;96507.78;;;7.25;100.00
5284;BME280;15377;48.540;9.268;2022-11-04T07:12:10;96504.75;;;7.37;100.00
5284;BME280;15377;48.540;9.268;2022-11-04T07:14:35;96508.72;;;7.36;100.00
5284;BME280;15377;48.540;9.268;2022-11-04T07:17:01;96509.28;;;7.40;100.00
5284;BME280;15377;48.540;9.268;2022-11-04T07:19:26;96510.78;;;7.41;100.00
5284;BME280;15377;48.540;9.268;2022-11-04T07:21:51;96504.75;;;7.37;100.00
5284;BME280;15377;48.540;9.268;2022-11-04T07:24:17;96510.41;;;7.48;100.00
5284;BME280;15377;48.540;9.268;2022-11-04T07:26:42;96517.22;;;7.53;100.00
5284;BME280;15377;48.540;9.268;2022-11-04T07:29:08;96527.41;;;7.67;100.00
5284;BME280;15377;48.540;9.268;2022-11-04T07:31:36;96529.47;;;7.72;100.00
5284;BME280;15377;48.540;9.268;2022-11-04T07:34:01;96527.75;;;7.74;100.00
5284;BME280;15377;48.540;9.268;2022-11-04T07:36:27;96520.00;;;7.87;100.00
5284;BME280;15377;48.540;9.268;2022-11-04T07:38:53;96520.59;;;7.91;100.00
5284;BME280;15377;48.540;9.268;2022-11-04T07:41:19;96519.03;;;7.90;100.00
5284;BME280;15377;48.540;9.268;2022-11-04T07:43:49;96514.69;;;7.98;100.00
5284;BME280;15377;48.540;9.268;2022-11-04T07:46:15;96516.22;;;7.99;100.00
5284;BME280;15377;48.540;9.268;2022-11-04T07:48:40;96516.03;;;8.03;100.00
5284;BME280;15377;48.540;9.268;2022-11-04T07:51:07;96515.84;;;8.06;100.00
5284;BME280;15377;48.540;9.268;2022-11-04T07:53:34;96514.09;;;8.09;100.00
5284;BME280;15377;48.540;9.268;2022-11-04T07:56:03;96505.03;;;8.17;100.00
5284;BME280;15377;48.540;9.268;2022-11-04T07:58:28;96508.22;;;8.30;100.00
5284;BME280;15377;48.540;9.268;2022-11-04T08:00:58;96507.97;;;8.48;100.00
5284;BME280;15377;48.540;9.268;2022-11-04T08:03:23;96499.19;;;8.64;100.00
5284;BME280;15377;48.540;9.268;2022-11-04T08:05:54;96493.41;;;8.82;100.00
5284;BME280;15377;48.540;9.268;2022-11-04T08:08:19;96512.31;;;9.00;100.00
5284;BME280;15377;48.540;9.268;2022-11-04T08:10:51;96501.13;;;9.04;100.00
5284;BME280;15377;48.540;9.268;2022-11-04T08:13:16;96500.53;;;9.20;100.00
5284;BME280;15377;48.540;9.268;2022-11-04T08:15:41;96492.09;;;9.23;100.00
5284;BME280;15377;48.540;9.268;2022-11-04T08:18:07;96507.97;;;9.39;100.00
5284;BME280;15377;48.540;9.268;2022-11-04T08:20:32;96505.59;;;9.52;100.00
5284;BME280;15377;48.540;9.268;2022-11-04T08:22:57;96506.25;;;9.67;100.00
5284;BME280;15377;48.540;9.268;2022-11-04T08:25:22;96511.38;;;9.85;100.00
5284;BME280;15377;48.540;9.268;2022-11-04T08:27:48;96498.88;;;9.84;100.00
5284;BME280;15377;48.540;9.268;2022-11-04T08:30:13;96502.25;;;9.99;100.00
5284;BME280;15377;48.540;9.268;2022-11-04T08:32:38;96505.41;;;10.18;100.00
5284;BME280;15377;48.540;9.268;2022-11-04T08:35:04;96510.00;;;10.32;100.00
5284;BME280;15377;48.540;9.268;2022-11-04T08:37:30;96504.56;;;10.48;100.00
5284;BME280;15377;48.540;9.268;2022-11-04T08:39:55;96503.38;;;10.55;100.00
5284;BME280;15377;48.540;9.268;2022-11-04T08:42:20;96500.88;;;10.62;100.00
5284;BME280;15377;48.540;9.268;2022-11-04T08:44:49;96501.38;;;10.61;100.00
5284;BME280;15377;48.540;9.268;2022-11-04T08:47:15;96502.28;;;10.41;100.00
5284;BME280;15377;48.540;9.268;2022-11-04T08:49:40;96498.03;;;10.46;100.00
5284;BME280;15377;48.540;9.268;2022-11-04T08:52:06;96500.38;;;10.58;100.00
5284;BME280;15377;48.540;9.268;2022-11-04T08:54:31;96504.09;;;10.55;100.00
5284;BME280;15377;48.540;9.268;2022-11-04T08:56:57;96512.75;;;10.37;100.00
5284;BME280;15377;48.540;9.268;2022-11-04T08:59:23;96519.22;;;10.34;100.00
5284;BME280;15377;48.540;9.268;2022-11-04T09:01:49;96505.44;;;10.23;100.00
5284;BME280;15377;48.540;9.268;2022-11-04T09:04:14;96521.22;;;10.28;100.00
5284;BME280;15377;48.540;9.268;2022-11-04T09:06:41;96534.00;;;10.37;100.00
5284;BME280;15377;48.540;9.268;2022-11-04T09:09:11;96530.09;;;10.49;100.00
5284;BME280;15377;48.540;9.268;2022-11-04T09:11:39;96541.91;;;10.60;100.00
5284;BME280;15377;48.540;9.268;2022-11-04T09:14:04;96543.84;;;10.49;100.00
5284;BME280;15377;48.540;9.268;2022-11-04T09:16:32;96556.56;;;10.46;100.00
5284;BME280;15377;48.540;9.268;2022-11-04T09:18:58;96553.47;;;10.33;100.00
5284;BME280;15377;48.540;9.268;2022-11-04T09:21:25;96579.63;;;10.54;100.00
5284;BME280;15377;48.540;9.268;2022-11-04T09:23:50;96581.91;;;10.61;100.00
5284;BME280;15377;48.540;9.268;2022-11-04T09:26:16;96584.72;;;10.72;100.00
5284;BME280;15377;48.540;9.268;2022-11-04T09:28:42;96589.06;;;10.84;100.00
5284;BME280;15377;48.540;9.268;2022-11-04T09:31:14;96581.09;;;10.97;100.00
5284;BME280;15377;48.540;9.268;2022-11-04T09:33:40;96583.13;;;11.02;100.00
5284;BME280;15377;48.540;9.268;2022-11-04T09:36:05;96583.66;;;11.06;100.00
5284;BME280;15377;48.540;9.268;2022-11-04T09:38:33;96577.41;;;11.11;100.00
5284;BME280;15377;48.540;9.268;2022-11-04T09:40:59;96571.41;;;11.12;100.00
5284;BME280;15377;48.540;9.268;2022-11-04T09:43:49;96580.22;;;11.27;100.00
5284;BME280;15377;48.540;9.268;2022-11-04T09:46:16;96579.25;;;11.36;100.00
5284;BME280;15377;48.540;9.268;2022-11-04T09:48:50;96570.78;;;11.56;100.00
5284;BME280;15377;48.540;9.268;2022-11-04T09:51:20;96575.84;;;11.74;100.00
5284;BME280;15377;48.540;9.268;2022-11-04T09:53:48;96584.41;;;11.87;100.00
5284;BME280;15377;48.540;9.268;2022-11-04T09:56:27;96580.41;;;12.10;100.00
5284;BME280;15377;48.540;9.268;2022-11-04T09:58:53;96583.16;;;12.43;100.00
5284;BME280;15377;48.540;9.268;2022-11-04T10:01:31;96578.63;;;12.56;100.00
5284;BME280;15377;48.540;9.268;2022-11-04T10:12:21;96577.59;;;12.70;100.00
5284;BME280;15377;48.540;9.268;2022-11-04T10:15:03;96575.31;;;12.80;100.00
5284;BME280;15377;48.540;9.268;2022-11-04T10:17:50;96578.81;;;12.75;100.00
5284;BME280;15377;48.540;9.268;2022-11-04T10:23:18;96562.31;;;12.64;100.00
5284;BME280;15377;48.540;9.268;2022-11-04T10:28:18;96559.44;;;13.02;100.00
5284;BME280;15377;48.540;9.268;2022-11-04T10:30:49;96557.16;;;13.12;100.00
5284;BME280;15377;48.540;9.268;2022-11-04T10:36:05;96559.13;;;13.22;100.00
5284;BME280;15377;48.540;9.268;2022-11-04T10:41:31;96541.75;;;13.27;100.00
5284;BME280;15377;48.540;9.268;2022-11-04T10:44:23;96562.13;;;13.65;100.00
5284;BME280;15377;48.540;9.268;2022-11-04T10:52:07;96547.34;;;13.62;100.00
5284;BME280;15377;48.540;9.268;2022-11-04T10:54:38;96545.28;;;13.74;100.00
5284;BME280;15377;48.540;9.268;2022-11-04T10:57:04;96538.44;;;13.80;100.00
5284;BME280;15377;48.540;9.268;2022-11-04T11:02:15;96540.97;;;13.78;100.00
5284;BME280;15377;48.540;9.268;2022-11-04T11:04:40;96541.97;;;13.81;100.00
5284;BME280;15377;48.540;9.268;2022-11-04T11:07:10;96529.75;;;13.95;100.00
5284;BME280;15377;48.540;9.268;2022-11-04T11:09:53;96537.59;;;13.91;100.00
5284;BME280;15377;48.540;9.268;2022-11-04T11:12:24;96519.63;;;14.08;100.00
5284;BME280;15377;48.540;9.268;2022-11-04T11:15:24;96533.88;;;14.18;100.00
5284;BME280;15377;48.540;9.268;2022-11-04T11:17:59;96544.78;;;14.05;100.00
5284;BME280;15377;48.540;9.268;2022-11-04T11:20:31;96537.50;;;14.02;100.00
5284;BME280;15377;48.540;9.268;2022-11-04T11:22:57;96534.59;;;13.89;100.00
5284;BME280;15377;48.540;9.268;2022-11-04T11:25:24;96534.84;;;13.91;100.00
5284;BME280;15377;48.540;9.268;2022-11-04T11:33:04;96511.09;;;14.01;100.00
5284;BME280;15377;48.540;9.268;2022-11-04T11:35:38;96523.44;;;14.00;100.00
5284;BME280;15377;48.540;9.268;2022-11-04T11:38:22;96511.34;;;14.03;100.00
5284;BME280;15377;48.540;9.268;2022-11-04T11:40:49;96515.47;;;13.91;100.00
5284;BME280;15377;48.540;9.268;2022-11-04T11:43:29;96521.94;;;13.99;100.00
5284;BME280;15377;48.540;9.268;2022-11-04T11:45:55;96519.69;;;13.97;100.00
5284;BME280;15377;48.540;9.268;2022-11-04T11:48:31;96517.41;;;13.66;100.00
5284;BME280;15377;48.540;9.268;2022-11-04T11:50:57;96518.72;;;13.60;100.00
5284;BME280;15377;48.540;9.268;2022-11-04T11:53:25;96510.78;;;13.40;100.00
5284;BME280;15377;48.540;9.268;2022-11-04T11:56:17;96518.31;;;13.45;100.00
5284;BME280;15377;48.540;9.268;2022-11-04T11:59:05;96507.78;;;13.38;100.00
5284;BME280;15377;48.540;9.268;2022-11-04T12:01:43;96509.81;;;13.72;100.00
5284;BME280;15377;48.540;9.268;2022-11-04T12:04:11;96508.88;;;13.64;100.00
5284;BME280;15377;48.540;9.268;2022-11-04T12:09:48;96512.22;;;13.52;100.00
5284;BME280;15377;48.540;9.268;2022-11-04T12:12:49;96518.75;;;13.49;100.00
5284;BME280;15377;48.540;9.268;2022-11-04T12:18:31;96514.84;;;13.74;100.00
5284;BME280;15377;48.540;9.268;2022-11-04T12:21:15;96513.09;;;13.71;100.00
5284;BME280;15377;48.540;9.268;2022-11-04T12:31:58;96531.72;;;13.65;100.00
5284;BME280;15377;48.540;9.268;2022-11-04T12:34:49;96529.69;;;13.71;100.00
5284;BME280;15377;48.540;9.268;2022-11-04T12:37:27;96525.38;;;13.75;100.00
5284;BME280;15377;48.540;9.268;2022-11-04T12:40:07;96528.69;;;14.03;100.00
5284;BME280;15377;48.540;9.268;2022-11-04T12:47:59;96522.59;;;14.10;100.00
5284;BME280;15377;48.540;9.268;2022-11-04T12:50:39;96533.69;;;14.40;100.00
5284;BME280;15377;48.540;9.268;2022-11-04T12:56:04;96529.31;;;14.73;100.00
5284;BME280;15377;48.540;9.268;2022-11-04T13:01:20;96524.50;;;14.98;100.00
5284;BME280;15377;48.540;9.268;2022-11-04T13:03:52;96529.53;;;14.99;100.00
5284;BME280;15377;48.540;9.268;2022-11-04T13:06:33;96523.41;;;15.06;100.00
5284;BME280;15377;48.540;9.268;2022-11-04T13:09:05;96533.41;;;15.33;100.00
5284;BME280;15377;48.540;9.268;2022-11-04T13:17:10;96535.13;;;15.36;100.00
5284;BME280;15377;48.540;9.268;2022-11-04T13:19:42;96531.16;;;15.50;100.00
5284;BME280;15377;48.540;9.268;2022-11-04T13:22:14;96537.97;;;15.31;100.00
5284;BME280;15377;48.540;9.268;2022-11-04T13:24:48;96531.06;;;15.19;100.00
5284;BME280;15377;48.540;9.268;2022-11-04T13:27:20;96528.94;;;15.06;100.00
5284;BME280;15377;48.540;9.268;2022-11-04T13:29:47;96539.41;;;15.13;100.00
5284;BME280;15377;48.540;9.268;2022-11-04T13:32:25;96535.50;;;15.03;100.00
5284;BME280;15377;48.540;9.268;2022-11-04T13:37:39;96530.22;;;14.81;100.00
5284;BME280;15377;48.540;9.268;2022-11-04T13:40:18;96535.31;;;14.77;100.00
5284;BME280;15377;48.540;9.268;2022-11-04T13:45:55;96524.94;;;14.60;100.00
5284;BME280;15377;48.540;9.268;2022-11-04T13:48:31;96536.69;;;14.42;100.00
5284;BME280;15377;48.540;9.268;2022-11-04T13:51:04;96538.53;;;13.99;100.00
5284;BME280;15377;48.540;9.268;2022-11-04T13:56:09;96546.75;;;13.75;100.00
5284;BME280;15377;48.540;9.268;2022-11-04T13:58:37;96547.72;;;13.83;100.00
5284;BME280;15377;48.540;9.268;2022-11-04T14:07:02;96547.09;;;14.30;100.00
5284;BME280;15377;48.540;9.268;2022-11-04T14:09:48;96549.53;;;14.39;100.00
5284;BME280;15377;48.540;9.268;2022-11-04T14:25:26;96565.84;;;13.73;100.00
5284;BME280;15377;48.540;9.268;2022-11-04T14:27:51;96568.19;;;13.63;100.00
5284;BME280;15377;48.540;9.268;2022-11-04T14:30:33;96561.94;;;13.57;100.00
5284;BME280;15377;48.540;9.268;2022-11-04T14:33:02;96571.66;;;13.29;100.00
5284;BME280;15377;48.540;9.268;2022-11-04T14:35:29;96564.22;;;13.02;100.00
5284;BME280;15377;48.540;9.268;2022-11-04T14:37:59;96569.53;;;12.94;100.00
5284;BME280;15377;48.540;9.268;2022-11-04T14:40:43;96572.78;;;12.82;100.00
5284;BME280;15377;48.540;9.268;2022-11-04T14:43:30;96569.28;;;12.76;100.00
5284;BME280;15377;48.540;9.268;2022-11-04T14:45:59;96573.81;;;12.68;100.00
5284;BME280;15377;48.540;9.268;2022-11-04T14:48:26;96581.63;;;12.64;100.00
5284;BME280;15377;48.540;9.268;2022-11-04T14:50:54;96574.59;;;12.57;100.00
5284;BME280;15377;48.540;9.268;2022-11-04T14:53:46;96587.91;;;12.48;100.00
5284;BME280;15377;48.540;9.268;2022-11-04T14:56:19;96590.44;;;12.40;100.00
5284;BME280;15377;48.540;9.268;2022-11-04T14:59:24;96594.69;;;12.36;100.00
5284;BME280;15377;48.540;9.268;2022-11-04T15:01:52;96595.44;;;12.20;100.00
5284;BME280;15377;48.540;9.268;2022-11-04T15:04:23;96597.97;;;12.12;100.00
5284;BME280;15377;48.540;9.268;2022-11-04T15:07:03;96603.22;;;12.05;100.00
5284;BME280;15377;48.540;9.268;2022-11-04T15:14:52;96616.47;;;11.84;100.00
5284;BME280;15377;48.540;9.268;2022-11-04T15:17:19;96624.50;;;11.77;100.00
5284;BME280;15377;48.540;9.268;2022-11-04T15:19:48;96628.69;;;11.61;100.00
5284;BME280;15377;48.540;9.268;2022-11-04T15:22:15;96622.09;;;11.42;100.00
5284;BME280;15377;48.540;9.268;2022-11-04T15:24:41;96629.34;;;11.40;100.00